sensor_id;sensor_type;location;lat;lon;timestamp;temperature;humidity
77865;DHT22;67061;48.524;9.040;2023-07-08T00:00:10;19.30;55.50
77865;DHT22;67061;48.524;9.040;2023-07-08T00:04:04;19.20;57.40
77865;DHT22;67061;48.524;9.040;2023-07-08T00:06:35;19.10;57.50
77865;DHT22;67061;48.524;9.040;2023-07-08T00:09:04;19.00;57.60
77865;DHT22;67061;48.524;9.040;2023-07-08T00:11:33;19.00;57.70
77865;DHT22;67061;48.524;9.040;2023-07-08T00:14:02;19.00;58.90
77865;DHT22;67061;48.524;9.040;2023-07-08T00:16:29;18.90;58.90
77865;DHT22;67061;48.524;9.040;2023-07-08T00:18:56;18.90;59.40
77865;DHT22;67061;48.524;9.040;2023-07-08T00:21:22;18.80;59.40
77865;DHT22;67061;48.524;9.040;2023-07-08T00:23:50;18.80;60.00
77865;DHT22;67061;48.524;9.040;2023-07-08T00:26:20;18.70;60.60
77865;DHT22;67061;48.524;9.040;2023-07-08T00:28:48;18.60;60.80
77865;DHT22;67061;48.524;9.040;2023-07-08T00:31:16;18.40;61.30
77865;DHT22;67061;48.524;9.040;2023-07-08T00:33:49;18.30;60.80
77865;DHT22;67061;48.524;9.040;2023-07-08T00:36:16;18.20;62.20
77865;DHT22;67061;48.524;9.040;2023-07-08T00:38:43;18.20;61.70
77865;DHT22;67061;48.524;9.040;2023-07-08T00:41:14;18.10;62.80
77865;DHT22;67061;48.524;9.040;2023-07-08T00:43:45;18.00;63.40
77865;DHT22;67061;48.524;9.040;2023-07-08T00:46:21;17.80;63.60
77865;DHT22;67061;48.524;9.040;2023-07-08T00:49:00;17.70;65.00
77865;DHT22;67061;48.524;9.040;2023-07-08T00:51:29;17.70;65.00
77865;DHT22;67061;48.524;9.040;2023-07-08T00:53:55;17.50;64.30
77865;DHT22;67061;48.524;9.040;2023-07-08T00:56:25;17.50;66.20
77865;DHT22;67061;48.524;9.040;2023-07-08T00:58:55;17.50;65.40
77865;DHT22;67061;48.524;9.040;2023-07-08T01:01:25;17.60;65.50
77865;DHT22;67061;48.524;9.040;2023-07-08T01:03:55;17.50;65.50
77865;DHT22;67061;48.524;9.040;2023-07-08T01:06:23;17.40;65.40
77865;DHT22;67061;48.524;9.040;2023-07-08T01:08:57;17.30;66.90
77865;DHT22;67061;48.524;9.040;2023-07-08T01:11:25;17.20;66.80
77865;DHT22;67061;48.524;9.040;2023-07-08T01:13:52;17.20;66.90
77865;DHT22;67061;48.524;9.040;2023-07-08T01:16:20;17.20;66.90
77865;DHT22;67061;48.524;9.040;2023-07-08T01:18:48;17.20;66.80
77865;DHT22;67061;48.524;9.040;2023-07-08T01:21:33;17.20;67.30
77865;DHT22;67061;48.524;9.040;2023-07-08T01:24:05;17.00;68.10
77865;DHT22;67061;48.524;9.040;2023-07-08T01:26:34;17.00;68.00
77865;DHT22;67061;48.524;9.040;2023-07-08T01:29:03;16.90;67.90
77865;DHT22;67061;48.524;9.040;2023-07-08T01:31:30;16.90;67.80
77865;DHT22;67061;48.524;9.040;2023-07-08T01:33:57;16.90;68.20
77865;DHT22;67061;48.524;9.040;2023-07-08T01:36:25;16.90;68.70
77865;DHT22;67061;48.524;9.040;2023-07-08T01:38:52;16.80;69.30
77865;DHT22;67061;48.524;9.040;2023-07-08T01:41:20;16.80;69.20
77865;DHT22;67061;48.524;9.040;2023-07-08T01:43:47;16.80;69.50
77865;DHT22;67061;48.524;9.040;2023-07-08T01:46:18;16.70;69.20
77865;DHT22;67061;48.524;9.040;2023-07-08T01:48:48;16.60;69.10
77865;DHT22;67061;48.524;9.040;2023-07-08T01:51:16;16.50;70.20
77865;DHT22;67061;48.524;9.040;2023-07-08T01:53:43;16.40;70.40
77865;DHT22;67061;48.524;9.040;2023-07-08T01:56:12;16.30;70.60
77865;DHT22;67061;48.524;9.040;2023-07-08T01:58:41;16.30;69.90
77865;DHT22;67061;48.524;9.040;2023-07-08T02:01:08;16.20;70.50
77865;DHT22;67061;48.524;9.040;2023-07-08T02:03:36;16.20;70.50
77865;DHT22;67061;48.524;9.040;2023-07-08T02:06:03;16.00;71.30
77865;DHT22;67061;48.524;9.040;2023-07-08T02:08:30;16.00;71.50
77865;DHT22;67061;48.524;9.040;2023-07-08T02:10:58;16.00;71.30
77865;DHT22;67061;48.524;9.040;2023-07-08T02:13:25;16.00;71.30
77865;DHT22;67061;48.524;9.040;2023-07-08T02:15:54;15.80;71.80
77865;DHT22;67061;48.524;9.040;2023-07-08T02:18:21;15.80;72.20
77865;DHT22;67061;48.524;9.040;2023-07-08T02:20:50;15.80;72.60
77865;DHT22;67061;48.524;9.040;2023-07-08T02:23:18;15.70;73.20
77865;DHT22;67061;48.524;9.040;2023-07-08T02:25:50;15.60;73.60
77865;DHT22;67061;48.524;9.040;2023-07-08T02:28:18;15.60;72.70
77865;DHT22;67061;48.524;9.040;2023-07-08T02:30:44;15.40;74.70
77865;DHT22;67061;48.524;9.040;2023-07-08T02:33:13;15.30;75.00
77865;DHT22;67061;48.524;9.040;2023-07-08T02:35:43;15.30;75.40
77865;DHT22;67061;48.524;9.040;2023-07-08T02:38:10;15.40;75.20
77865;DHT22;67061;48.524;9.040;2023-07-08T02:40:37;15.40;73.60
77865;DHT22;67061;48.524;9.040;2023-07-08T02:43:04;15.30;74.10
77865;DHT22;67061;48.524;9.040;2023-07-08T02:45:31;15.30;74.50
77865;DHT22;67061;48.524;9.040;2023-07-08T02:47:58;15.40;74.40
77865;DHT22;67061;48.524;9.040;2023-07-08T02:50:26;15.40;74.30
77865;DHT22;67061;48.524;9.040;2023-07-08T02:52:53;15.30;73.70
77865;DHT22;67061;48.524;9.040;2023-07-08T02:55:20;15.30;74.20
77865;DHT22;67061;48.524;9.040;2023-07-08T02:57:47;15.40;74.10
77865;DHT22;67061;48.524;9.040;2023-07-08T03:00:15;15.40;73.70
77865;DHT22;67061;48.524;9.040;2023-07-08T03:02:42;15.40;73.20
77865;DHT22;67061;48.524;9.040;2023-07-08T03:05:09;15.50;72.70
77865;DHT22;67061;48.524;9.040;2023-07-08T03:07:37;15.50;73.50
77865;DHT22;67061;48.524;9.040;2023-07-08T03:10:04;15.50;73.10
77865;DHT22;67061;48.524;9.040;2023-07-08T03:12:32;15.40;72.60
77865;DHT22;67061;48.524;9.040;2023-07-08T03:14:58;15.50;73.30
77865;DHT22;67061;48.524;9.040;2023-07-08T03:17:25;15.50;72.90
77865;DHT22;67061;48.524;9.040;2023-07-08T03:19:52;15.50;73.00
77865;DHT22;67061;48.524;9.040;2023-07-08T03:22:19;15.50;73.00
77865;DHT22;67061;48.524;9.040;2023-07-08T03:24:47;15.60;72.90
77865;DHT22;67061;48.524;9.040;2023-07-08T03:27:15;15.60;72.90
77865;DHT22;67061;48.524;9.040;2023-07-08T03:29:42;15.60;73.50
77865;DHT22;67061;48.524;9.040;2023-07-08T03:32:11;15.60;73.00
77865;DHT22;67061;48.524;9.040;2023-07-08T03:34:38;15.60;73.10
77865;DHT22;67061;48.524;9.040;2023-07-08T03:37:05;15.60;72.90
77865;DHT22;67061;48.524;9.040;2023-07-08T03:39:32;15.60;74.20
77865;DHT22;67061;48.524;9.040;2023-07-08T03:42:00;15.60;74.20
77865;DHT22;67061;48.524;9.040;2023-07-08T03:44:28;15.60;74.40
77865;DHT22;67061;48.524;9.040;2023-07-08T03:46:55;15.60;75.10
77865;DHT22;67061;48.524;9.040;2023-07-08T03:49:22;15.60;74.40
77865;DHT22;67061;48.524;9.040;2023-07-08T03:51:50;15.80;74.40
77865;DHT22;67061;48.524;9.040;2023-07-08T03:54:20;15.80;74.50
77865;DHT22;67061;48.524;9.040;2023-07-08T03:56:47;15.80;74.60
77865;DHT22;67061;48.524;9.040;2023-07-08T03:59:16;15.80;74.40
77865;DHT22;67061;48.524;9.040;2023-07-08T04:01:43;15.80;74.50
77865;DHT22;67061;48.524;9.040;2023-07-08T04:04:12;15.70;74.60
77865;DHT22;67061;48.524;9.040;2023-07-08T04:06:40;15.60;74.70
77865;DHT22;67061;48.524;9.040;2023-07-08T04:09:07;15.50;75.50
77865;DHT22;67061;48.524;9.040;2023-07-08T04:11:34;15.40;75.30
77865;DHT22;67061;48.524;9.040;2023-07-08T04:14:01;15.40;75.10
77865;DHT22;67061;48.524;9.040;2023-07-08T04:16:37;15.50;75.70
77865;DHT22;67061;48.524;9.040;2023-07-08T04:19:08;15.60;75.30
77865;DHT22;67061;48.524;9.040;2023-07-08T04:21:41;15.70;74.50
77865;DHT22;67061;48.524;9.040;2023-07-08T04:24:09;15.60;74.70
77865;DHT22;67061;48.524;9.040;2023-07-08T04:26:37;15.60;74.30
77865;DHT22;67061;48.524;9.040;2023-07-08T04:29:09;15.60;74.90
77865;DHT22;67061;48.524;9.040;2023-07-08T04:31:38;15.80;74.80
77865;DHT22;67061;48.524;9.040;2023-07-08T04:34:05;15.80;74.80
77865;DHT22;67061;48.524;9.040;2023-07-08T04:36:32;15.80;75.20
77865;DHT22;67061;48.524;9.040;2023-07-08T04:38:59;15.80;75.10
77865;DHT22;67061;48.524;9.040;2023-07-08T04:41:26;15.80;75.00
77865;DHT22;67061;48.524;9.040;2023-07-08T04:43:53;15.90;74.90
77865;DHT22;67061;48.524;9.040;2023-07-08T04:46:30;16.00;74.70
77865;DHT22;67061;48.524;9.040;2023-07-08T04:49:02;16.00;75.20
77865;DHT22;67061;48.524;9.040;2023-07-08T04:51:30;16.10;74.40
77865;DHT22;67061;48.524;9.040;2023-07-08T04:53:57;16.20;73.20
77865;DHT22;67061;48.524;9.040;2023-07-08T04:56:25;16.40;73.20
77865;DHT22;67061;48.524;9.040;2023-07-08T04:58:52;16.50;72.10
77865;DHT22;67061;48.524;9.040;2023-07-08T05:01:19;16.60;71.40
77865;DHT22;67061;48.524;9.040;2023-07-08T05:03:46;16.70;71.20
77865;DHT22;67061;48.524;9.040;2023-07-08T05:06:14;16.80;71.00
77865;DHT22;67061;48.524;9.040;2023-07-08T05:08:41;16.90;70.70
77865;DHT22;67061;48.524;9.040;2023-07-08T05:11:07;17.00;70.30
77865;DHT22;67061;48.524;9.040;2023-07-08T05:13:34;17.00;70.50
77865;DHT22;67061;48.524;9.040;2023-07-08T05:16:01;17.10;71.00
77865;DHT22;67061;48.524;9.040;2023-07-08T05:18:28;17.20;72.20
77865;DHT22;67061;48.524;9.040;2023-07-08T05:20:55;17.30;72.10
77865;DHT22;67061;48.524;9.040;2023-07-08T05:23:24;17.40;72.20
77865;DHT22;67061;48.524;9.040;2023-07-08T05:25:51;17.50;71.60
77865;DHT22;67061;48.524;9.040;2023-07-08T05:28:18;17.50;71.40
77865;DHT22;67061;48.524;9.040;2023-07-08T05:30:47;17.60;71.30
77865;DHT22;67061;48.524;9.040;2023-07-08T05:33:14;17.60;70.50
77865;DHT22;67061;48.524;9.040;2023-07-08T05:35:41;17.80;70.40
77865;DHT22;67061;48.524;9.040;2023-07-08T05:38:08;17.80;70.50
77865;DHT22;67061;48.524;9.040;2023-07-08T05:40:36;17.80;70.30
77865;DHT22;67061;48.524;9.040;2023-07-08T05:43:03;17.80;70.50
77865;DHT22;67061;48.524;9.040;2023-07-08T05:45:30;17.90;70.80
77865;DHT22;67061;48.524;9.040;2023-07-08T05:47:56;18.00;70.80
77865;DHT22;67061;48.524;9.040;2023-07-08T05:50:23;18.00;70.80
77865;DHT22;67061;48.524;9.040;2023-07-08T05:52:50;18.00;70.00
77865;DHT22;67061;48.524;9.040;2023-07-08T05:55:17;18.00;70.50
77865;DHT22;67061;48.524;9.040;2023-07-08T05:57:45;18.00;71.30
77865;DHT22;67061;48.524;9.040;2023-07-08T06:00:14;18.10;70.00
77865;DHT22;67061;48.524;9.040;2023-07-08T06:02:41;18.20;70.40
77865;DHT22;67061;48.524;9.040;2023-07-08T06:05:08;18.20;69.10
77865;DHT22;67061;48.524;9.040;2023-07-08T06:07:35;18.20;69.30
77865;DHT22;67061;48.524;9.040;2023-07-08T06:10:02;18.30;69.30
77865;DHT22;67061;48.524;9.040;2023-07-08T06:12:30;18.30;70.70
77865;DHT22;67061;48.524;9.040;2023-07-08T06:14:58;18.40;69.80
77865;DHT22;67061;48.524;9.040;2023-07-08T06:17:25;18.40;69.70
77865;DHT22;67061;48.524;9.040;2023-07-08T06:19:52;18.40;69.60
77865;DHT22;67061;48.524;9.040;2023-07-08T06:22:19;18.50;69.40
77865;DHT22;67061;48.524;9.040;2023-07-08T06:24:46;18.50;69.70
77865;DHT22;67061;48.524;9.040;2023-07-08T06:27:14;18.50;69.10
77865;DHT22;67061;48.524;9.040;2023-07-08T06:29:41;18.60;68.90
77865;DHT22;67061;48.524;9.040;2023-07-08T06:32:10;18.60;68.00
77865;DHT22;67061;48.524;9.040;2023-07-08T06:34:37;18.60;67.70
77865;DHT22;67061;48.524;9.040;2023-07-08T06:37:04;18.70;67.60
77865;DHT22;67061;48.524;9.040;2023-07-08T06:39:31;18.70;67.60
77865;DHT22;67061;48.524;9.040;2023-07-08T06:41:58;18.70;67.50
77865;DHT22;67061;48.524;9.040;2023-07-08T06:44:25;18.80;67.50
77865;DHT22;67061;48.524;9.040;2023-07-08T06:46:52;18.80;67.90
77865;DHT22;67061;48.524;9.040;2023-07-08T06:49:20;18.90;66.80
77865;DHT22;67061;48.524;9.040;2023-07-08T06:51:47;18.90;66.70
77865;DHT22;67061;48.524;9.040;2023-07-08T06:54:14;19.00;67.70
77865;DHT22;67061;48.524;9.040;2023-07-08T06:56:41;19.10;67.20
77865;DHT22;67061;48.524;9.040;2023-07-08T06:59:08;19.10;66.60
77865;DHT22;67061;48.524;9.040;2023-07-08T07:01:35;19.20;67.10
77865;DHT22;67061;48.524;9.040;2023-07-08T07:04:03;19.30;66.90
77865;DHT22;67061;48.524;9.040;2023-07-08T07:06:32;19.40;66.60
77865;DHT22;67061;48.524;9.040;2023-07-08T07:08:59;19.50;65.80
77865;DHT22;67061;48.524;9.040;2023-07-08T07:11:25;19.50;66.30
77865;DHT22;67061;48.524;9.040;2023-07-08T07:13:53;19.60;66.50
77865;DHT22;67061;48.524;9.040;2023-07-08T07:16:20;19.70;65.70
77865;DHT22;67061;48.524;9.040;2023-07-08T07:18:47;19.80;66.60
77865;DHT22;67061;48.524;9.040;2023-07-08T07:21:15;19.90;66.90
77865;DHT22;67061;48.524;9.040;2023-07-08T07:23:43;20.00;67.10
77865;DHT22;67061;48.524;9.040;2023-07-08T07:26:10;20.10;65.80
77865;DHT22;67061;48.524;9.040;2023-07-08T07:28:37;20.30;64.70
77865;DHT22;67061;48.524;9.040;2023-07-08T07:31:04;20.30;64.80
77865;DHT22;67061;48.524;9.040;2023-07-08T07:33:33;20.40;65.40
77865;DHT22;67061;48.524;9.040;2023-07-08T07:36:00;20.50;64.10
77865;DHT22;67061;48.524;9.040;2023-07-08T07:38:27;20.50;64.10
77865;DHT22;67061;48.524;9.040;2023-07-08T07:40:55;20.60;64.70
77865;DHT22;67061;48.524;9.040;2023-07-08T07:43:25;20.70;65.20
77865;DHT22;67061;48.524;9.040;2023-07-08T07:45:52;20.80;63.70
77865;DHT22;67061;48.524;9.040;2023-07-08T07:48:19;20.90;64.70
77865;DHT22;67061;48.524;9.040;2023-07-08T07:50:47;20.90;64.10
77865;DHT22;67061;48.524;9.040;2023-07-08T07:53:14;21.00;64.00
77865;DHT22;67061;48.524;9.040;2023-07-08T07:55:41;21.10;63.70
77865;DHT22;67061;48.524;9.040;2023-07-08T07:58:09;21.10;63.00
77865;DHT22;67061;48.524;9.040;2023-07-08T08:00:37;21.30;63.70
77865;DHT22;67061;48.524;9.040;2023-07-08T08:03:04;21.40;63.00
77865;DHT22;67061;48.524;9.040;2023-07-08T08:05:31;21.50;63.30
77865;DHT22;67061;48.524;9.040;2023-07-08T08:07:58;21.50;62.30
77865;DHT22;67061;48.524;9.040;2023-07-08T08:10:25;21.70;60.40
77865;DHT22;67061;48.524;9.040;2023-07-08T08:12:52;21.80;61.10
77865;DHT22;67061;48.524;9.040;2023-07-08T08:15:21;21.90;60.80
77865;DHT22;67061;48.524;9.040;2023-07-08T08:17:48;21.90;60.50
77865;DHT22;67061;48.524;9.040;2023-07-08T08:20:18;22.00;60.90
77865;DHT22;67061;48.524;9.040;2023-07-08T08:22:46;22.00;60.10
77865;DHT22;67061;48.524;9.040;2023-07-08T08:25:14;22.00;60.10
77865;DHT22;67061;48.524;9.040;2023-07-08T08:27:41;22.00;61.00
77865;DHT22;67061;48.524;9.040;2023-07-08T08:30:10;22.10;61.90
77865;DHT22;67061;48.524;9.040;2023-07-08T08:32:39;22.20;60.20
77865;DHT22;67061;48.524;9.040;2023-07-08T08:35:06;22.20;60.30
77865;DHT22;67061;48.524;9.040;2023-07-08T08:37:33;22.30;60.00
77865;DHT22;67061;48.524;9.040;2023-07-08T08:40:00;22.30;60.40
77865;DHT22;67061;48.524;9.040;2023-07-08T08:42:32;22.40;61.10
77865;DHT22;67061;48.524;9.040;2023-07-08T08:45:02;22.50;59.30
77865;DHT22;67061;48.524;9.040;2023-07-08T08:47:36;22.70;59.60
77865;DHT22;67061;48.524;9.040;2023-07-08T08:50:17;22.70;58.20
77865;DHT22;67061;48.524;9.040;2023-07-08T08:52:50;22.70;59.20
77865;DHT22;67061;48.524;9.040;2023-07-08T08:55:17;22.80;60.30
77865;DHT22;67061;48.524;9.040;2023-07-08T08:57:51;22.90;58.90
77865;DHT22;67061;48.524;9.040;2023-07-08T09:00:25;23.00;57.70
77865;DHT22;67061;48.524;9.040;2023-07-08T09:02:59;23.10;57.60
77865;DHT22;67061;48.524;9.040;2023-07-08T09:05:29;23.20;57.10
77865;DHT22;67061;48.524;9.040;2023-07-08T09:08:03;23.20;57.40
77865;DHT22;67061;48.524;9.040;2023-07-08T09:10:40;23.30;57.30
77865;DHT22;67061;48.524;9.040;2023-07-08T09:13:16;23.40;57.50
77865;DHT22;67061;48.524;9.040;2023-07-08T09:15:45;23.50;55.90
77865;DHT22;67061;48.524;9.040;2023-07-08T09:18:18;23.50;56.20
77865;DHT22;67061;48.524;9.040;2023-07-08T09:20:48;23.60;55.80
77865;DHT22;67061;48.524;9.040;2023-07-08T09:23:20;23.60;55.10
77865;DHT22;67061;48.524;9.040;2023-07-08T09:25:54;23.80;57.60
77865;DHT22;67061;48.524;9.040;2023-07-08T09:28:36;23.90;56.40
77865;DHT22;67061;48.524;9.040;2023-07-08T09:31:06;24.00;56.80
77865;DHT22;67061;48.524;9.040;2023-07-08T09:33:37;24.00;55.80
77865;DHT22;67061;48.524;9.040;2023-07-08T09:36:17;24.00;54.70
77865;DHT22;67061;48.524;9.040;2023-07-08T09:38:47;24.00;54.00
77865;DHT22;67061;48.524;9.040;2023-07-08T09:41:28;24.00;53.90
77865;DHT22;67061;48.524;9.040;2023-07-08T09:44:04;24.00;53.60
77865;DHT22;67061;48.524;9.040;2023-07-08T09:46:35;24.00;54.30
77865;DHT22;67061;48.524;9.040;2023-07-08T09:49:13;24.00;55.90
77865;DHT22;67061;48.524;9.040;2023-07-08T09:51:43;24.10;54.10
77865;DHT22;67061;48.524;9.040;2023-07-08T09:54:10;24.30;53.40
77865;DHT22;67061;48.524;9.040;2023-07-08T09:56:40;24.40;53.40
77865;DHT22;67061;48.524;9.040;2023-07-08T09:59:12;24.50;53.30
77865;DHT22;67061;48.524;9.040;2023-07-08T10:01:40;24.60;52.00
77865;DHT22;67061;48.524;9.040;2023-07-08T10:04:08;24.60;51.50
77865;DHT22;67061;48.524;9.040;2023-07-08T10:06:35;24.70;51.40
77865;DHT22;67061;48.524;9.040;2023-07-08T10:09:08;24.70;51.70
77865;DHT22;67061;48.524;9.040;2023-07-08T10:11:42;24.90;51.30
77865;DHT22;67061;48.524;9.040;2023-07-08T10:14:16;25.00;51.60
77865;DHT22;67061;48.524;9.040;2023-07-08T10:16:44;25.00;50.20
77865;DHT22;67061;48.524;9.040;2023-07-08T10:19:13;25.20;50.40
77865;DHT22;67061;48.524;9.040;2023-07-08T10:21:48;25.30;49.70
77865;DHT22;67061;48.524;9.040;2023-07-08T10:24:30;25.30;49.50
77865;DHT22;67061;48.524;9.040;2023-07-08T10:27:08;25.40;50.50
77865;DHT22;67061;48.524;9.040;2023-07-08T10:29:45;25.50;48.10
77865;DHT22;67061;48.524;9.040;2023-07-08T10:32:21;25.50;49.60
77865;DHT22;67061;48.524;9.040;2023-07-08T10:34:58;25.60;49.20
77865;DHT22;67061;48.524;9.040;2023-07-08T10:37:34;25.60;49.50
77865;DHT22;67061;48.524;9.040;2023-07-08T10:40:19;25.70;49.10
77865;DHT22;67061;48.524;9.040;2023-07-08T10:43:04;25.90;47.70
77865;DHT22;67061;48.524;9.040;2023-07-08T10:45:36;26.00;49.20
77865;DHT22;67061;48.524;9.040;2023-07-08T10:48:23;26.10;48.90
77865;DHT22;67061;48.524;9.040;2023-07-08T10:51:03;26.20;47.50
77865;DHT22;67061;48.524;9.040;2023-07-08T10:53:43;26.20;47.90
77865;DHT22;67061;48.524;9.040;2023-07-08T10:56:17;26.30;48.90
77865;DHT22;67061;48.524;9.040;2023-07-08T10:59:06;26.60;46.80
77865;DHT22;67061;48.524;9.040;2023-07-08T11:01:45;26.80;47.20
77865;DHT22;67061;48.524;9.040;2023-07-08T11:04:30;27.10;45.80
77865;DHT22;67061;48.524;9.040;2023-07-08T11:07:07;27.30;45.90
77865;DHT22;67061;48.524;9.040;2023-07-08T11:09:40;27.50;44.80
77865;DHT22;67061;48.524;9.040;2023-07-08T11:12:24;27.70;44.20
77865;DHT22;67061;48.524;9.040;2023-07-08T11:14:57;27.80;43.60
77865;DHT22;67061;48.524;9.040;2023-07-08T11:17:32;27.90;43.20
77865;DHT22;67061;48.524;9.040;2023-07-08T11:20:13;28.00;43.90
77865;DHT22;67061;48.524;9.040;2023-07-08T11:22:49;28.10;43.00
77865;DHT22;67061;48.524;9.040;2023-07-08T11:25:20;28.10;42.40
77865;DHT22;67061;48.524;9.040;2023-07-08T11:27:51;28.00;43.60
77865;DHT22;67061;48.524;9.040;2023-07-08T11:30:22;28.00;42.70
77865;DHT22;67061;48.524;9.040;2023-07-08T11:32:58;28.00;42.30
77865;DHT22;67061;48.524;9.040;2023-07-08T11:35:34;28.10;42.60
77865;DHT22;67061;48.524;9.040;2023-07-08T11:38:03;28.30;42.70
77865;DHT22;67061;48.524;9.040;2023-07-08T11:40:30;28.30;43.30
77865;DHT22;67061;48.524;9.040;2023-07-08T11:43:03;28.60;42.70
77865;DHT22;67061;48.524;9.040;2023-07-08T11:45:34;29.10;39.80
77865;DHT22;67061;48.524;9.040;2023-07-08T11:48:09;29.30;40.80
77865;DHT22;67061;48.524;9.040;2023-07-08T11:50:41;29.40;40.00
77865;DHT22;67061;48.524;9.040;2023-07-08T11:53:10;29.50;39.90
77865;DHT22;67061;48.524;9.040;2023-07-08T11:55:43;29.70;40.60
77865;DHT22;67061;48.524;9.040;2023-07-08T11:58:20;30.00;40.30
77865;DHT22;67061;48.524;9.040;2023-07-08T12:00:54;30.30;38.30
77865;DHT22;67061;48.524;9.040;2023-07-08T12:03:31;30.50;37.30
77865;DHT22;67061;48.524;9.040;2023-07-08T12:06:00;30.30;38.90
77865;DHT22;67061;48.524;9.040;2023-07-08T12:08:34;30.40;36.90
77865;DHT22;67061;48.524;9.040;2023-07-08T12:11:03;30.00;37.00
77865;DHT22;67061;48.524;9.040;2023-07-08T12:13:32;29.80;37.10
77865;DHT22;67061;48.524;9.040;2023-07-08T12:15:59;29.70;37.20
77865;DHT22;67061;48.524;9.040;2023-07-08T12:18:31;29.70;37.20
77865;DHT22;67061;48.524;9.040;2023-07-08T12:21:00;29.70;37.70
77865;DHT22;67061;48.524;9.040;2023-07-08T12:23:28;29.80;38.00
77865;DHT22;67061;48.524;9.040;2023-07-08T12:25:56;30.30;37.50
77865;DHT22;67061;48.524;9.040;2023-07-08T12:28:24;30.70;35.50
77865;DHT22;67061;48.524;9.040;2023-07-08T12:30:53;30.80;35.90
77865;DHT22;67061;48.524;9.040;2023-07-08T12:33:25;31.00;34.70
77865;DHT22;67061;48.524;9.040;2023-07-08T12:35:53;31.20;34.20
77865;DHT22;67061;48.524;9.040;2023-07-08T12:38:23;31.40;34.30
77865;DHT22;67061;48.524;9.040;2023-07-08T12:40:53;31.50;34.10
77865;DHT22;67061;48.524;9.040;2023-07-08T12:43:21;31.50;35.20
77865;DHT22;67061;48.524;9.040;2023-07-08T12:45:48;31.60;34.10
77865;DHT22;67061;48.524;9.040;2023-07-08T12:48:16;31.70;33.60
77865;DHT22;67061;48.524;9.040;2023-07-08T12:50:43;31.50;33.10
77865;DHT22;67061;48.524;9.040;2023-07-08T12:53:11;31.40;33.80
77865;DHT22;67061;48.524;9.040;2023-07-08T12:55:39;31.40;33.50
77865;DHT22;67061;48.524;9.040;2023-07-08T12:58:08;31.60;33.60
77865;DHT22;67061;48.524;9.040;2023-07-08T13:00:39;31.80;31.90
77865;DHT22;67061;48.524;9.040;2023-07-08T13:03:11;31.90;33.60
77865;DHT22;67061;48.524;9.040;2023-07-08T13:05:41;32.00;31.80
77865;DHT22;67061;48.524;9.040;2023-07-08T13:08:11;32.00;32.00
77865;DHT22;67061;48.524;9.040;2023-07-08T13:10:40;32.00;32.10
77865;DHT22;67061;48.524;9.040;2023-07-08T13:13:12;32.00;30.50
77865;DHT22;67061;48.524;9.040;2023-07-08T13:15:41;31.80;32.60
77865;DHT22;67061;48.524;9.040;2023-07-08T13:18:14;32.00;32.10
77865;DHT22;67061;48.524;9.040;2023-07-08T13:20:48;32.00;32.70
77865;DHT22;67061;48.524;9.040;2023-07-08T13:23:16;31.80;32.00
77865;DHT22;67061;48.524;9.040;2023-07-08T13:25:43;31.70;31.80
77865;DHT22;67061;48.524;9.040;2023-07-08T13:28:18;31.60;32.20
77865;DHT22;67061;48.524;9.040;2023-07-08T13:30:53;31.80;32.70
77865;DHT22;67061;48.524;9.040;2023-07-08T13:33:21;31.90;31.30
77865;DHT22;67061;48.524;9.040;2023-07-08T13:35:51;31.90;32.10
77865;DHT22;67061;48.524;9.040;2023-07-08T13:38:20;31.90;31.30
77865;DHT22;67061;48.524;9.040;2023-07-08T13:40:52;31.90;30.60
77865;DHT22;67061;48.524;9.040;2023-07-08T13:43:23;31.80;30.50
77865;DHT22;67061;48.524;9.040;2023-07-08T13:45:51;31.80;31.50
77865;DHT22;67061;48.524;9.040;2023-07-08T13:48:22;32.00;31.10
77865;DHT22;67061;48.524;9.040;2023-07-08T13:50:58;32.00;30.60
77865;DHT22;67061;48.524;9.040;2023-07-08T13:53:45;31.90;31.60
77865;DHT22;67061;48.524;9.040;2023-07-08T13:56:14;31.80;31.10
77865;DHT22;67061;48.524;9.040;2023-07-08T13:58:43;31.60;31.30
77865;DHT22;67061;48.524;9.040;2023-07-08T14:01:15;31.70;32.30
77865;DHT22;67061;48.524;9.040;2023-07-08T14:03:43;31.80;32.40
77865;DHT22;67061;48.524;9.040;2023-07-08T14:06:14;31.90;32.10
77865;DHT22;67061;48.524;9.040;2023-07-08T14:08:42;31.60;32.10
77865;DHT22;67061;48.524;9.040;2023-07-08T14:11:09;31.50;31.80
77865;DHT22;67061;48.524;9.040;2023-07-08T14:13:36;31.40;32.70
77865;DHT22;67061;48.524;9.040;2023-07-08T14:16:03;31.30;33.40
77865;DHT22;67061;48.524;9.040;2023-07-08T14:18:32;31.20;33.30
77865;DHT22;67061;48.524;9.040;2023-07-08T14:20:59;31.30;33.60
77865;DHT22;67061;48.524;9.040;2023-07-08T14:23:27;31.50;32.50
77865;DHT22;67061;48.524;9.040;2023-07-08T14:25:54;31.70;32.50
77865;DHT22;67061;48.524;9.040;2023-07-08T14:28:21;31.80;32.60
77865;DHT22;67061;48.524;9.040;2023-07-08T14:30:48;32.00;32.50
77865;DHT22;67061;48.524;9.040;2023-07-08T14:33:15;32.00;32.00
77865;DHT22;67061;48.524;9.040;2023-07-08T14:35:42;32.20;32.60
77865;DHT22;67061;48.524;9.040;2023-07-08T14:38:10;32.50;32.80
77865;DHT22;67061;48.524;9.040;2023-07-08T14:40:41;32.60;31.70
77865;DHT22;67061;48.524;9.040;2023-07-08T14:43:13;32.80;31.80
77865;DHT22;67061;48.524;9.040;2023-07-08T14:45:42;32.80;31.90
77865;DHT22;67061;48.524;9.040;2023-07-08T14:48:12;32.90;30.40
77865;DHT22;67061;48.524;9.040;2023-07-08T14:50:39;32.80;30.60
77865;DHT22;67061;48.524;9.040;2023-07-08T14:53:06;32.80;31.30
77865;DHT22;67061;48.524;9.040;2023-07-08T14:55:33;32.80;30.80
77865;DHT22;67061;48.524;9.040;2023-07-08T14:58:02;32.50;31.10
77865;DHT22;67061;48.524;9.040;2023-07-08T15:00:30;32.60;30.50
77865;DHT22;67061;48.524;9.040;2023-07-08T15:02:57;32.70;30.40
77865;DHT22;67061;48.524;9.040;2023-07-08T15:05:25;32.30;30.40
77865;DHT22;67061;48.524;9.040;2023-07-08T15:07:54;32.40;31.40
77865;DHT22;67061;48.524;9.040;2023-07-08T15:10:25;32.50;31.20
77865;DHT22;67061;48.524;9.040;2023-07-08T15:12:53;32.80;30.70
77865;DHT22;67061;48.524;9.040;2023-07-08T15:15:26;32.80;30.20
77865;DHT22;67061;48.524;9.040;2023-07-08T15:17:53;32.80;30.70
77865;DHT22;67061;48.524;9.040;2023-07-08T15:20:21;32.60;30.40
77865;DHT22;67061;48.524;9.040;2023-07-08T15:22:48;32.80;31.40
77865;DHT22;67061;48.524;9.040;2023-07-08T15:25:15;33.00;30.70
77865;DHT22;67061;48.524;9.040;2023-07-08T15:27:45;33.10;30.00
77865;DHT22;67061;48.524;9.040;2023-07-08T15:30:18;33.10;29.50
77865;DHT22;67061;48.524;9.040;2023-07-08T15:32:47;33.10;30.20
77865;DHT22;67061;48.524;9.040;2023-07-08T15:35:15;33.10;30.80
77865;DHT22;67061;48.524;9.040;2023-07-08T15:37:43;33.10;30.40
77865;DHT22;67061;48.524;9.040;2023-07-08T15:40:13;33.10;30.10
77865;DHT22;67061;48.524;9.040;2023-07-08T15:42:41;33.00;29.60
77865;DHT22;67061;48.524;9.040;2023-07-08T15:45:13;33.00;30.30